This is the latest recevied weather packets stored in our database for station/object AE5TC. If no packets are shown the sender has not sent any weather packets the latest 10 day(s).
| Time | Temp. | Humidity | Pressure | Rain* | Wind** | Luminosity | Snow |
|---|---|---|---|---|---|---|---|
| 1777770466 | 15.56° C | 99% | 1013.4 hPa | 0 mm | - | 0 W/m² | - |
| 1777770163 | 15.56° C | 99% | 1013.2 hPa | 0 mm | - | 0 W/m² | - |
| 1777769861 | 15.56° C | 99% | 1013.2 hPa | 0 mm | - | 0 W/m² | - |
| 1777769558 | 16.11° C | 98% | 1013.1 hPa | 0 mm | - | 0 W/m² | - |
| 1777769254 | 16.11° C | 97% | 1012.8 hPa | 0 mm | - | 0 W/m² | - |
| 1777768952 | 16.11° C | 96% | 1012.8 hPa | 0 mm | - | 0 W/m² | - |
| 1777768649 | 16.67° C | 95% | 1012.6 hPa | 0 mm | - | 0 W/m² | - |
| 1777768346 | 16.67° C | 94% | 1012.4 hPa | 0 mm | - | 0 W/m² | - |
| 1777768043 | 17.22° C | 93% | 1012.5 hPa | 0 mm | - | 1 W/m² | - |
| 1777767740 | 17.22° C | 92% | 1012.3 hPa | 0 mm | - | 2 W/m² | - |
| 1777767436 | 17.78° C | 92% | 1012.3 hPa | 0 mm | - | 4 W/m² | - |
| 1777767132 | 18.33° C | 90% | 1012.1 hPa | 0 mm | - | 7 W/m² | - |
| 1777766830 | 18.89° C | 87% | 1012.1 hPa | 0 mm | - | 10 W/m² | - |
| 1777766527 | 18.89° C | 85% | 1012 hPa | 0 mm | - | 13 W/m² | - |
| 1777766224 | 19.44° C | 83% | 1012.1 hPa | 0 mm | - | 17 W/m² | - |
| 1777765922 | 19.44° C | 82% | 1012 hPa | 0 mm | - | 20 W/m² | - |
| 1777765618 | 20° C | 81% | 1012.1 hPa | 0 mm | - | 22 W/m² | - |
| 1777765315 | 20° C | 81% | 1012 hPa | 0 mm | - | 26 W/m² | - |
| 1777765011 | 20° C | 80% | 1011.8 hPa | 0 mm | - | 28 W/m² | - |
| 1777764708 | 20° C | 80% | 1011.9 hPa | 0 mm | - | 32 W/m² | - |
| 1777764403 | 20° C | 80% | 1011.7 hPa | 0 mm | - | 33 W/m² | - |
| 1777764096 | 20° C | 79% | 1011.9 hPa | 0 mm | - | 47 W/m² | - |
| 1777763792 | 20.56° C | 79% | 1011.7 hPa | 0 mm | - | 41 W/m² | - |
| 1777763490 | 20.56° C | 78% | 1011.5 hPa | 0 mm | - | 39 W/m² | - |
| 1777763188 | 20.56° C | 77% | 1011.6 hPa | 0 mm | - | 42 W/m² | - |
* Rain latest hour (hover to see other rain measurements)
** Current wind speed in m/s (hover to see current wind gust speed)